createdAt,value
2023-03-26T00:01:46.002Z,100303.45309359721
2023-03-26T00:04:42.538Z,100298.37895793912
2023-03-26T00:07:38.068Z,100290.57401502527
2023-03-26T00:10:34.649Z,100298.95385574544
2023-03-26T00:13:32.201Z,100308.29684686514
2023-03-26T00:16:28.774Z,100300.92386902109
2023-03-26T00:19:25.308Z,100306.17125025448
2023-03-26T00:22:22.874Z,100309.70782930795
2023-03-26T00:25:21.439Z,100305.41634749465
2023-03-26T00:28:16.948Z,100317.08960188067
2023-03-26T00:31:14.632Z,100313.16248489784
2023-03-26T00:34:15.096Z,100315.35174783817
2023-03-26T00:40:20.186Z,100312.25736073017
2023-03-26T00:43:18.773Z,100302.80701157839
2023-03-26T00:46:14.385Z,100297.31659614762
2023-03-26T00:49:14.995Z,100307.62799645516
2023-03-26T00:52:10.399Z,100304.95354354734
2023-03-26T00:55:06.955Z,100315.04275865706
2023-03-26T00:58:02.566Z,100301.53111453367
2023-03-26T01:01:03.152Z,100294.49735875428
2023-03-26T01:04:09.136Z,100293.1638026972
2023-03-26T01:07:10.144Z,100289.22128267019
2023-03-26T01:10:07.716Z,100282.37939746468
2023-03-26T01:13:03.371Z,100280.05363433428
2023-03-26T01:16:01.982Z,100287.87965461134
2023-03-26T01:19:00.422Z,100287.73728318661
2023-03-26T01:22:02.932Z,100286.52113460179
2023-03-26T01:24:58.456Z,100292.01071667623
2023-03-26T01:28:01.067Z,100298.14389976652
2023-03-26T01:31:06.575Z,100294.85192266008
2023-03-26T01:34:12.095Z,100292.74519663406
2023-03-26T01:37:15.677Z,100280.18310739458
2023-03-26T01:40:25.158Z,100276.02999236327
2023-03-26T01:43:29.743Z,100294.88911055661
2023-03-26T01:46:27.349Z,100293.47197838241
2023-03-26T01:49:22.822Z,100295.64498737223
2023-03-26T01:52:22.426Z,100293.98846063437
2023-03-26T01:55:19.922Z,100296.8581742168
2023-03-26T01:58:27.425Z,100295.64747022213
2023-03-26T02:01:31.038Z,100299.62705168028
2023-03-26T02:04:34.565Z,100297.19325627355
2023-03-26T02:07:42.065Z,100304.87439491908
2023-03-26T02:10:43.656Z,100300.5713390766
2023-03-26T02:13:40.170Z,100305.60021596806
2023-03-26T02:16:36.777Z,100306.24989206628
2023-03-26T02:19:32.288Z,100300.33191949333
2023-03-26T02:22:30.848Z,100302.60637127004
2023-03-26T02:25:26.413Z,100294.66987011519
2023-03-26T02:28:22.963Z,100302.03605595637
2023-03-26T02:31:19.548Z,100306.62713650866
2023-03-26T02:34:17.148Z,100304.08284210834
2023-03-26T02:37:14.631Z,100307.13854123378
2023-03-26T02:40:11.229Z,100297.41223558538
2023-03-26T02:43:07.779Z,100295.30798205805
2023-03-26T02:46:03.376Z,100292.96278262192
2023-03-26T02:48:58.879Z,100293.28071630145
2023-03-26T02:51:56.502Z,100297.30296294091
2023-03-26T02:54:52.989Z,100292.51000856227
2023-03-26T02:57:48.558Z,100300.04198546303
2023-03-26T03:00:50.134Z,100297.48317116441
2023-03-26T03:03:47.681Z,100298.17078767513
2023-03-26T03:06:44.253Z,100296.02919531452
2023-03-26T03:09:40.781Z,100298.15985274449
2023-03-26T03:12:37.353Z,100293.18957856248
2023-03-26T03:15:32.899Z,100287.99153634849
2023-03-26T03:18:28.473Z,100287.57849848313
2023-03-26T03:21:27.029Z,100283.17064228871
2023-03-26T03:24:23.614Z,100287.39884808737
2023-03-26T03:27:20.146Z,100286.71636252358
2023-03-26T03:30:15.683Z,100299.72066232767
2023-03-26T03:33:13.289Z,100296.87090103506
2023-03-26T03:36:19.889Z,100293.5422032347
2023-03-26T03:39:11.336Z,100287.8806625556
2023-03-26T03:42:06.912Z,100287.6019062716
2023-03-26T03:48:08.075Z,100296.9579188539
2023-03-26T03:51:04.571Z,100301.53397186461
2023-03-26T03:54:00.174Z,100296.70961381575
2023-03-26T03:56:57.726Z,100304.97992148984
2023-03-26T03:59:53.261Z,100310.95741641853
2023-03-26T04:02:58.881Z,100309.1762148206
2023-03-26T04:05:56.470Z,100311.9750348626
2023-03-26T04:08:51.924Z,100313.62831580742
2023-03-26T04:11:47.457Z,100319.35069876644
2023-03-26T04:17:48.617Z,100316.23569252534
2023-03-26T04:20:46.140Z,100323.65343054113
2023-03-26T04:23:45.681Z,100329.45345371006
2023-03-26T04:26:47.219Z,100327.3646984537
2023-03-26T04:29:49.784Z,100332.57870772902
2023-03-26T04:32:51.351Z,100322.18835449139
2023-03-26T04:35:47.966Z,100325.74296874381
2023-03-26T04:38:44.500Z,100329.9519763884
2023-03-26T04:41:42.978Z,100324.098708228
2023-03-26T04:44:41.562Z,100334.23244778898
2023-03-26T04:47:39.196Z,100343.62062682802
2023-03-26T04:50:35.659Z,100343.32653752681
2023-03-26T04:53:31.218Z,100357.7622334789
2023-03-26T04:56:34.828Z,100350.53877703195
2023-03-26T04:59:35.408Z,100350.70526826613
2023-03-26T05:02:31.926Z,100350.40857965416
2023-03-26T05:05:28.391Z,100351.66311534379
2023-03-26T05:11:29.521Z,100354.74003196282
2023-03-26T05:14:26.092Z,100358.69534895282
2023-03-26T05:17:24.761Z,100365.5232541508
2023-03-26T05:20:22.199Z,100371.32402525439
2023-03-26T05:23:17.739Z,100373.34617471983
2023-03-26T05:26:13.297Z,100369.14311593241
2023-03-26T05:29:08.871Z,100372.12553592617
2023-03-26T05:32:04.430Z,100373.63625822053
2023-03-26T05:35:01.016Z,100365.9533341841
2023-03-26T05:37:57.557Z,100369.6743882305
2023-03-26T05:40:57.080Z,100363.99564373183
2023-03-26T05:43:52.658Z,100352.03935470876
2023-03-26T05:46:48.252Z,100360.48183864073
2023-03-26T05:49:43.765Z,100359.25117164712
2023-03-26T05:52:39.340Z,100370.18351193353
2023-03-26T05:55:34.921Z,100367.48168389883
2023-03-26T05:58:32.458Z,100374.24252762872
2023-03-26T06:01:30.078Z,100381.33062205918
2023-03-26T06:04:27.672Z,100374.520128339
2023-03-26T06:07:24.194Z,100377.4063823147
2023-03-26T06:10:20.692Z,100369.22103444464
2023-03-26T06:13:16.263Z,100369.04019800712
2023-03-26T06:16:21.103Z,100360.85082859494
2023-03-26T06:19:13.430Z,100363.63900580109
2023-03-26T06:22:09.921Z,100363.00197153531
2023-03-26T06:25:07.532Z,100364.90905070998
2023-03-26T06:28:04.038Z,100361.90698269036
2023-03-26T06:31:01.670Z,100362.53142741261
2023-03-26T06:33:57.126Z,100367.40656904476
2023-03-26T06:36:52.738Z,100368.1785591486
2023-03-26T06:39:48.284Z,100361.29691333795
2023-03-26T06:43:06.944Z,100366.38013773906
2023-03-26T06:45:44.397Z,100366.91105292324
2023-03-26T06:51:46.480Z,100375.56190339422
2023-03-26T06:54:42.071Z,100382.96067894658
2023-03-26T06:57:37.599Z,100381.82549411381
2023-03-26T07:00:33.193Z,100366.84052634913
2023-03-26T07:06:34.276Z,100359.14701022318
2023-03-26T07:12:35.416Z,100357.34878897016
2023-03-26T07:15:31.964Z,100362.76074461728
2023-03-26T07:18:27.537Z,100359.8630085485
2023-03-26T07:24:28.578Z,100356.90209453963
2023-03-26T07:27:36.140Z,100355.23282587455
2023-03-26T07:30:41.689Z,100356.6179304557
2023-03-26T07:33:45.213Z,100361.62695350738
2023-03-26T07:36:52.765Z,100352.46531935169
2023-03-26T07:39:58.236Z,100350.40429969653
2023-03-26T07:43:05.819Z,100346.29613047217
2023-03-26T07:46:08.364Z,100351.4965938052
2023-03-26T07:49:12.898Z,100353.63056054611
2023-03-26T07:52:10.475Z,100357.13086889428
2023-03-26T07:55:07.018Z,100354.70752789058
2023-03-26T07:58:13.575Z,100351.6617653937
2023-03-26T08:01:18.051Z,100342.5849200649
2023-03-26T08:04:31.660Z,100341.2954590572
2023-03-26T08:07:39.138Z,100335.22831623365
2023-03-26T08:10:42.638Z,100336.09402436865
2023-03-26T08:13:53.181Z,100341.07300691502
2023-03-26T08:16:54.748Z,100319.58416489698
2023-03-26T08:20:10.260Z,100319.23074057403
2023-03-26T08:23:12.792Z,100321.76365766431
2023-03-26T08:29:32.866Z,100315.23615062279
2023-03-26T08:32:30.417Z,100325.68399088734
2023-03-26T08:35:27.017Z,100320.56368312438
2023-03-26T08:38:23.541Z,100319.46827347408
2023-03-26T08:41:38.022Z,100309.19465809767
2023-03-26T08:44:47.565Z,100311.90003284515
2023-03-26T08:48:03.140Z,100312.92994065261
2023-03-26T08:51:20.559Z,100308.77877140262
2023-03-26T08:54:37.064Z,100300.13552838923
2023-03-26T08:57:53.599Z,100297.89584102712
2023-03-26T09:01:09.120Z,100305.03727311619
2023-03-26T09:04:23.620Z,100296.64087013838
2023-03-26T09:07:37.109Z,100303.47095471033
2023-03-26T09:10:46.673Z,100301.28410258297
2023-03-26T09:13:58.134Z,100294.84513506471
2023-03-26T09:17:13.662Z,100291.27539718786
2023-03-26T09:20:27.234Z,100283.05185431679
2023-03-26T09:23:38.759Z,100282.83704935318
2023-03-26T09:26:46.297Z,100278.8935691725
2023-03-26T09:29:54.783Z,100273.79135792574
2023-03-26T09:33:11.299Z,100276.35859964338
2023-03-26T09:36:26.824Z,100277.63485490467
2023-03-26T09:39:33.346Z,100267.98750238914
2023-03-26T09:42:42.869Z,100268.02698075755
2023-03-26T09:45:57.352Z,100261.76509814948
2023-03-26T09:49:12.898Z,100264.3169187786
2023-03-26T09:52:24.441Z,100261.21570628637
2023-03-26T09:55:39.980Z,100266.52160342911
2023-03-26T09:58:56.446Z,100261.13315793387
2023-03-26T10:02:03.996Z,100254.79060211827
2023-03-26T10:05:21.494Z,100254.81144244314
2023-03-26T10:08:32.996Z,100249.07891229681
2023-03-26T10:11:38.527Z,100246.76275001942
2023-03-26T10:14:42.129Z,100246.43581608348
2023-03-26T10:17:51.666Z,100236.70523796097
2023-03-26T10:20:59.129Z,100234.68452530164
2023-03-26T10:24:08.635Z,100220.39955177609
2023-03-26T10:27:24.312Z,100212.67799016165
2023-03-26T10:30:41.697Z,100208.04018264041
2023-03-26T10:33:52.191Z,100200.95027720432
2023-03-26T10:37:04.715Z,100190.7939562696
2023-03-26T10:40:12.266Z,100189.10255326059
2023-03-26T10:43:21.754Z,100177.8717106659
2023-03-26T10:46:37.328Z,100180.489865524
2023-03-26T10:49:48.809Z,100172.9319066939
2023-03-26T10:52:49.339Z,100168.28221184935
2023-03-26T10:55:51.890Z,100158.33842143697
2023-03-26T10:58:50.630Z,100149.76217952727
2023-03-26T11:01:56.058Z,100143.20636755534
2023-03-26T11:05:07.570Z,100144.86138448336
2023-03-26T11:08:13.049Z,100133.28916131837
2023-03-26T11:11:19.602Z,100126.5201694369
2023-03-26T11:14:33.842Z,100123.4489032138
2023-03-26T11:17:41.000Z,100121.98053737236
2023-03-26T11:20:41.242Z,100122.41798933763
2023-03-26T11:23:49.706Z,100121.38950387076
2023-03-26T11:26:55.236Z,100118.12157568557
2023-03-26T11:30:02.744Z,100111.33865142945
2023-03-26T11:33:04.327Z,100109.38686538007
2023-03-26T11:39:13.404Z,100102.06453050574
2023-03-26T11:42:10.992Z,100090.76317817789
2023-03-26T11:45:15.521Z,100085.05140516751
2023-03-26T11:48:19.058Z,100067.55223879412
2023-03-26T11:51:19.605Z,100068.81794640904
2023-03-26T11:54:21.155Z,100059.43309586719
2023-03-26T11:57:22.741Z,100058.56558964188
2023-03-26T12:00:27.247Z,100052.23457585614
2023-03-26T12:03:29.764Z,100057.38255018381
2023-03-26T12:06:32.348Z,100046.88251045188
2023-03-26T12:09:28.828Z,100041.70187242683
2023-03-26T12:12:30.409Z,100041.08290049936
2023-03-26T12:15:26.965Z,100032.85641627132
2023-03-26T12:18:28.550Z,100016.82586124534
2023-03-26T12:21:30.102Z,100019.1781135332
2023-03-26T12:24:29.611Z,100012.94517399436
2023-03-26T12:27:30.180Z,99996.6226894176
2023-03-26T12:30:33.713Z,99994.6697588706
2023-03-26T12:33:34.428Z,99984.15744748055
2023-03-26T12:36:32.822Z,99988.4839191039
2023-03-26T12:40:07.284Z,99978.07508294411
